Time;durP1;ratioP1;P1;durP2;ratioP2;P2;SDS_P1;SDS_P2;PMS_P1;PMS_P2;Temp;Humidity;BMP_temperature;BMP_pressure;BME280_temperature;BME280_humidity;BME280_pressure;Samples;Min_cycle;Max_cycle;Signal;HPM_P1;HPM_P2
2023/03/02 00:02:21;;;;;;;10.32;7.18;;;;;;;;;;5047529;28;20184;-49
2023/03/02 00:04:49;;;;;;;8.48;7.03;;;;;;;;;;5053153;28;20174;-49
2023/03/02 00:07:18;;;;;;;9.68;7.70;;;;;;;;;;5055687;28;20488;-49
2023/03/02 00:09:44;;;;;;;9.68;7.00;;;;;;;;;;5060659;28;20262;-49
2023/03/02 00:12:10;;;;;;;7.93;6.60;;;;;;;;;;5068169;28;20182;-49
2023/03/02 00:14:39;;;;;;;8.38;6.82;;;;;;;;;;5041957;28;20232;-49
2023/03/02 00:17:06;;;;;;;8.80;7.35;;;;;;;;;;5048165;28;20184;-49
2023/03/02 00:19:32;;;;;;;7.60;6.43;;;;;;;;;;5067469;28;20228;-49
2023/03/02 00:21:58;;;;;;;7.70;6.68;;;;;;;;;;5057970;28;20182;-49
2023/03/02 00:24:24;;;;;;;9.23;6.65;;;;;;;;;;5065608;28;20193;-49
2023/03/02 00:26:50;;;;;;;8.70;7.20;;;;;;;;;;5055530;28;20506;-50
2023/03/02 00:29:16;;;;;;;8.43;6.55;;;;;;;;;;5062724;28;20206;-50
2023/03/02 00:31:42;;;;;;;9.18;7.53;;;;;;;;;;5053471;28;20240;-50
2023/03/02 00:34:08;;;;;;;8.98;6.97;;;;;;;;;;5052373;28;20265;-49
2023/03/02 00:36:33;;;;;;;7.95;7.00;;;;;;;;;;5057777;28;20193;-49
2023/03/02 00:38:59;;;;;;;7.85;6.72;;;;;;;;;;5043287;28;20763;-49
2023/03/02 00:41:25;;;;;;;9.15;6.60;;;;;;;;;;5042723;28;20214;-49
2023/03/02 00:43:51;;;;;;;9.98;7.25;;;;;;;;;;5053331;28;20187;-49
2023/03/02 00:46:19;;;;;;;8.43;7.22;;;;;;;;;;5061804;28;20262;-49
2023/03/02 00:48:45;;;;;;;8.43;7.15;;;;;;;;;;5054887;28;20193;-49
2023/03/02 00:51:11;;;;;;;7.70;6.32;;;;;;;;;;5063314;28;20182;-49
2023/03/02 00:53:37;;;;;;;8.55;6.30;;;;;;;;;;5040315;28;20218;-49
2023/03/02 00:56:04;;;;;;;9.23;6.95;;;;;;;;;;5050287;28;20256;-49
2023/03/02 00:58:30;;;;;;;10.60;6.80;;;;;;;;;;5037134;28;20488;-49
2023/03/02 01:00:57;;;;;;;8.30;7.18;;;;;;;;;;5044693;28;20472;-50
2023/03/02 01:03:23;;;;;;;8.13;6.72;;;;;;;;;;5044525;28;20211;-50
2023/03/02 01:05:54;;;;;;;9.13;6.85;;;;;;;;;;5046403;28;20229;-49
2023/03/02 01:08:20;;;;;;;9.93;7.40;;;;;;;;;;5048796;28;20190;-49
2023/03/02 01:10:45;;;;;;;8.20;6.90;;;;;;;;;;5045467;28;20187;-49
2023/03/02 01:13:11;;;;;;;8.98;7.40;;;;;;;;;;5060002;28;20198;-49
2023/03/02 01:15:37;;;;;;;7.78;6.60;;;;;;;;;;5055126;28;20190;-49
2023/03/02 01:18:03;;;;;;;8.90;7.40;;;;;;;;;;5052450;28;20661;-49
2023/03/02 01:20:29;;;;;;;8.55;6.85;;;;;;;;;;5051870;28;20291;-49
2023/03/02 01:22:55;;;;;;;9.48;7.35;;;;;;;;;;5050890;28;20182;-49
2023/03/02 01:25:21;;;;;;;8.00;6.53;;;;;;;;;;5068063;28;20185;-49
2023/03/02 01:27:47;;;;;;;7.55;6.65;;;;;;;;;;5049319;28;20182;-49
2023/03/02 01:30:13;;;;;;;9.07;7.20;;;;;;;;;;5046551;28;20215;-49
2023/03/02 01:32:39;;;;;;;10.10;7.05;;;;;;;;;;5071113;28;20249;-49
2023/03/02 01:35:05;;;;;;;9.48;7.75;;;;;;;;;;5064755;28;20202;-49
2023/03/02 01:37:31;;;;;;;9.27;6.60;;;;;;;;;;5043935;28;20571;-49
2023/03/02 01:39:57;;;;;;;10.10;7.38;;;;;;;;;;5046107;28;20215;-49
2023/03/02 01:42:23;;;;;;;7.75;6.60;;;;;;;;;;5053860;28;20301;-49
2023/03/02 01:44:50;;;;;;;8.38;6.97;;;;;;;;;;5060205;28;20196;-49
2023/03/02 01:47:17;;;;;;;9.57;7.20;;;;;;;;;;5050937;28;20224;-50
2023/03/02 01:49:46;;;;;;;9.05;6.90;;;;;;;;;;5050029;28;20205;-50
2023/03/02 01:52:12;;;;;;;9.95;7.55;;;;;;;;;;5055666;28;20542;-50
2023/03/02 01:54:40;;;;;;;9.57;7.43;;;;;;;;;;5057254;28;20864;-49
2023/03/02 01:57:06;;;;;;;10.30;7.53;;;;;;;;;;5059609;28;20267;-49
2023/03/02 01:59:33;;;;;;;8.77;6.53;;;;;;;;;;5054366;28;20187;-49
2023/03/02 02:02:01;;;;;;;9.30;6.85;;;;;;;;;;5056049;28;20184;-49
2023/03/02 02:04:28;;;;;;;9.32;7.10;;;;;;;;;;5055375;28;20183;-49
2023/03/02 02:06:56;;;;;;;10.25;6.93;;;;;;;;;;5065151;28;20278;-50
2023/03/02 02:09:23;;;;;;;8.43;7.30;;;;;;;;;;5053160;28;20176;-50
2023/03/02 02:11:49;;;;;;;8.32;7.38;;;;;;;;;;5065732;28;20187;-49
2023/03/02 02:14:15;;;;;;;8.00;7.05;;;;;;;;;;5048144;28;20187;-49
2023/03/02 02:16:41;;;;;;;9.68;7.18;;;;;;;;;;5065257;28;20186;-49
2023/03/02 02:19:14;;;;;;;9.05;7.00;;;;;;;;;;5058114;28;20262;-49
2023/03/02 02:21:40;;;;;;;7.45;6.75;;;;;;;;;;5072206;28;20221;-49
2023/03/02 02:24:11;;;;;;;8.82;7.32;;;;;;;;;;5049729;28;20222;-49
2023/03/02 02:26:40;;;;;;;8.35;7.03;;;;;;;;;;5061259;28;20438;-49
2023/03/02 02:29:13;;;;;;;8.07;7.28;;;;;;;;;;5068134;28;20187;-49
2023/03/02 02:31:45;;;;;;;8.77;7.18;;;;;;;;;;5060218;28;20207;-49
2023/03/02 02:34:14;;;;;;;8.30;7.40;;;;;;;;;;5058515;28;20189;-49
2023/03/02 02:36:41;;;;;;;9.30;7.10;;;;;;;;;;5047463;28;20289;-49
2023/03/02 02:39:10;;;;;;;8.20;6.47;;;;;;;;;;5039132;28;20180;-49
2023/03/02 02:41:38;;;;;;;9.50;7.45;;;;;;;;;;5039153;28;20212;-49
2023/03/02 02:44:07;;;;;;;9.68;7.72;;;;;;;;;;5040456;28;20223;-49
2023/03/02 02:46:33;;;;;;;8.43;7.15;;;;;;;;;;5040068;28;20258;-49
2023/03/02 02:49:00;;;;;;;9.82;6.95;;;;;;;;;;5042206;28;20369;-49
2023/03/02 02:51:28;;;;;;;8.00;7.05;;;;;;;;;;5051698;28;20265;-49
2023/03/02 02:53:59;;;;;;;7.53;6.55;;;;;;;;;;5052279;28;20179;-49
2023/03/02 02:56:27;;;;;;;7.13;5.95;;;;;;;;;;5046842;28;20194;-49
2023/03/02 02:58:54;;;;;;;8.52;7.22;;;;;;;;;;5051823;28;20179;-49
2023/03/02 03:01:24;;;;;;;8.77;6.82;;;;;;;;;;5048902;28;20217;-50
2023/03/02 03:03:52;;;;;;;9.02;7.63;;;;;;;;;;5047836;28;20298;-50
2023/03/02 03:06:19;;;;;;;7.88;6.82;;;;;;;;;;5035215;28;20258;-49
2023/03/02 03:08:45;;;;;;;8.50;6.95;;;;;;;;;;5053794;28;20180;-50
2023/03/02 03:11:13;;;;;;;8.30;6.32;;;;;;;;;;5058526;28;20189;-50
2023/03/02 03:13:39;;;;;;;7.82;6.97;;;;;;;;;;5063689;28;20186;-50
2023/03/02 03:16:07;;;;;;;8.13;7.05;;;;;;;;;;5060474;28;20429;-50
2023/03/02 03:18:33;;;;;;;8.52;7.30;;;;;;;;;;5056282;28;20262;-49
2023/03/02 03:20:59;;;;;;;8.20;7.05;;;;;;;;;;5055846;28;20309;-49
2023/03/02 03:23:25;;;;;;;8.88;7.07;;;;;;;;;;5037702;28;20183;-49
2023/03/02 03:25:50;;;;;;;7.28;6.50;;;;;;;;;;5043689;28;20194;-49
2023/03/02 03:28:17;;;;;;;8.93;7.10;;;;;;;;;;5039184;28;20190;-50
2023/03/02 03:30:43;;;;;;;7.55;6.75;;;;;;;;;;5039481;28;20206;-50
2023/03/02 03:33:09;;;;;;;7.00;6.28;;;;;;;;;;5043774;28;20273;-50
2023/03/02 03:35:36;;;;;;;7.93;7.13;;;;;;;;;;5039201;28;20551;-50
2023/03/02 03:38:02;;;;;;;9.77;7.15;;;;;;;;;;5042277;28;20192;-50
2023/03/02 03:40:28;;;;;;;9.27;7.15;;;;;;;;;;5061157;28;20221;-50
2023/03/02 03:42:53;;;;;;;8.18;6.85;;;;;;;;;;5047573;28;20183;-50
2023/03/02 03:45:19;;;;;;;7.10;6.07;;;;;;;;;;5039339;28;20226;-50
2023/03/02 03:47:45;;;;;;;8.40;6.85;;;;;;;;;;5038260;28;20183;-50
2023/03/02 03:50:11;;;;;;;8.68;6.90;;;;;;;;;;5046422;28;20262;-50
2023/03/02 03:52:37;;;;;;;9.18;6.68;;;;;;;;;;5042267;28;20306;-50
2023/03/02 03:55:03;;;;;;;9.18;7.07;;;;;;;;;;5042952;28;20270;-49
2023/03/02 03:57:29;;;;;;;8.70;6.80;;;;;;;;;;5045103;28;20254;-49
2023/03/02 03:59:55;;;;;;;8.55;6.80;;;;;;;;;;5045983;28;20206;-49
2023/03/02 04:02:21;;;;;;;7.68;6.55;;;;;;;;;;5046902;28;20175;-49
2023/03/02 04:04:47;;;;;;;8.18;6.90;;;;;;;;;;5050895;28;20179;-50
2023/03/02 04:07:13;;;;;;;7.65;6.85;;;;;;;;;;5046481;28;20555;-50
2023/03/02 04:09:39;;;;;;;8.23;6.43;;;;;;;;;;5047793;28;20233;-50
2023/03/02 04:12:06;;;;;;;9.52;7.03;;;;;;;;;;5065045;28;20171;-50
2023/03/02 04:14:32;;;;;;;8.45;7.13;;;;;;;;;;5056431;28;20191;-50
2023/03/02 04:16:58;;;;;;;8.90;6.78;;;;;;;;;;5041288;28;20207;-50
2023/03/02 04:19:24;;;;;;;8.63;6.88;;;;;;;;;;5043730;28;20195;-50
2023/03/02 04:21:52;;;;;;;6.93;6.07;;;;;;;;;;5047129;28;20834;-50
2023/03/02 04:24:18;;;;;;;8.27;7.10;;;;;;;;;;5045458;28;20192;-50
2023/03/02 04:26:45;;;;;;;7.68;6.85;;;;;;;;;;5048955;28;20192;-50
2023/03/02 04:29:12;;;;;;;8.05;7.20;;;;;;;;;;5047116;28;20195;-50
2023/03/02 04:31:38;;;;;;;9.95;6.53;;;;;;;;;;5041602;28;20183;-49
2023/03/02 04:34:05;;;;;;;6.68;5.93;;;;;;;;;;5039383;28;20183;-49
2023/03/02 04:36:32;;;;;;;7.57;6.38;;;;;;;;;;5041546;28;20183;-49
2023/03/02 04:38:58;;;;;;;9.85;6.55;;;;;;;;;;5042435;28;20571;-50
2023/03/02 04:41:24;;;;;;;7.35;6.65;;;;;;;;;;5045910;28;20250;-50
2023/03/02 04:43:51;;;;;;;7.03;6.32;;;;;;;;;;5045945;28;21553;-49
2023/03/02 04:46:22;;;;;;;7.57;6.43;;;;;;;;;;5047847;28;20226;-49
2023/03/02 04:48:48;;;;;;;8.90;6.60;;;;;;;;;;5046432;28;20187;-49
2023/03/02 04:51:22;;;;;;;7.90;6.47;;;;;;;;;;5044577;28;20495;-50
2023/03/02 04:53:48;;;;;;;7.32;5.90;;;;;;;;;;5038313;28;20179;-50
2023/03/02 04:56:14;;;;;;;7.15;6.25;;;;;;;;;;5045973;28;20195;-49
2023/03/02 04:58:40;;;;;;;8.68;6.45;;;;;;;;;;5046001;28;20491;-49
2023/03/02 05:01:06;;;;;;;6.95;6.25;;;;;;;;;;5062691;28;20241;-49
2023/03/02 05:03:33;;;;;;;8.68;6.28;;;;;;;;;;5045863;28;20184;-49
2023/03/02 05:06:01;;;;;;;7.35;6.28;;;;;;;;;;5056366;28;20210;-49
2023/03/02 05:08:26;;;;;;;8.18;6.82;;;;;;;;;;5048668;28;20175;-49
2023/03/02 05:10:52;;;;;;;8.60;7.30;;;;;;;;;;5055229;28;20186;-49
2023/03/02 05:13:18;;;;;;;9.32;6.60;;;;;;;;;;5053347;28;20460;-50
2023/03/02 05:15:44;;;;;;;7.85;6.50;;;;;;;;;;5055015;28;20566;-50
2023/03/02 05:18:10;;;;;;;9.60;6.18;;;;;;;;;;5056669;28;20183;-50
2023/03/02 05:20:37;;;;;;;9.70;6.90;;;;;;;;;;5046382;28;20586;-50
2023/03/02 05:23:05;;;;;;;8.75;6.40;;;;;;;;;;5042070;28;20254;-51
2023/03/02 05:25:32;;;;;;;10.73;7.18;;;;;;;;;;5042792;28;20182;-50
2023/03/02 05:27:58;;;;;;;8.50;6.47;;;;;;;;;;5043669;28;20196;-51
2023/03/02 05:30:24;;;;;;;9.32;6.50;;;;;;;;;;5041087;28;20216;-51
2023/03/02 05:32:51;;;;;;;9.68;7.03;;;;;;;;;;5040434;28;20194;-50
2023/03/02 05:35:18;;;;;;;8.43;6.47;;;;;;;;;;5040990;28;20192;-51
2023/03/02 05:37:44;;;;;;;9.73;6.50;;;;;;;;;;5044517;28;20202;-50
2023/03/02 05:40:14;;;;;;;9.88;6.97;;;;;;;;;;5041855;28;20208;-51
2023/03/02 05:42:41;;;;;;;11.40;6.65;;;;;;;;;;5040167;28;20183;-50
2023/03/02 05:45:07;;;;;;;13.85;6.93;;;;;;;;;;5042546;28;20224;-51
2023/03/02 05:47:33;;;;;;;10.15;7.32;;;;;;;;;;5041491;28;20555;-51
2023/03/02 05:49:59;;;;;;;9.80;8.15;;;;;;;;;;5046080;28;20190;-50
2023/03/02 05:52:25;;;;;;;9.48;7.32;;;;;;;;;;5042430;28;20187;-51
2023/03/02 05:54:51;;;;;;;11.05;7.57;;;;;;;;;;5041490;28;20501;-52
2023/03/02 05:57:17;;;;;;;9.40;8.02;;;;;;;;;;5044043;28;20337;-52
2023/03/02 05:59:45;;;;;;;12.20;8.70;;;;;;;;;;5040169;28;20266;-51
2023/03/02 06:02:11;;;;;;;11.00;8.73;;;;;;;;;;5040524;28;20197;-51
2023/03/02 06:04:42;;;;;;;12.02;8.57;;;;;;;;;;5040659;28;20563;-51
2023/03/02 06:07:10;;;;;;;11.13;7.97;;;;;;;;;;5054324;28;20175;-51
2023/03/02 06:09:36;;;;;;;11.80;8.45;;;;;;;;;;5042579;28;20171;-51
2023/03/02 06:12:02;;;;;;;11.80;8.20;;;;;;;;;;5039447;28;20501;-51
2023/03/02 06:14:28;;;;;;;11.45;8.55;;;;;;;;;;5043295;28;20191;-51
2023/03/02 06:16:54;;;;;;;12.55;8.40;;;;;;;;;;5048392;28;20459;-52
2023/03/02 06:19:20;;;;;;;13.07;8.68;;;;;;;;;;5066132;28;20185;-52
2023/03/02 06:21:45;;;;;;;13.15;8.85;;;;;;;;;;5049206;28;20202;-51
2023/03/02 06:24:11;;;;;;;12.30;8.52;;;;;;;;;;5046845;28;20178;-51
2023/03/02 06:26:37;;;;;;;11.52;8.18;;;;;;;;;;5053227;28;20190;-52
2023/03/02 06:29:04;;;;;;;10.85;8.90;;;;;;;;;;5060400;28;20207;-51
2023/03/02 06:31:30;;;;;;;10.07;7.85;;;;;;;;;;5069538;28;20206;-52
2023/03/02 06:33:56;;;;;;;11.27;8.48;;;;;;;;;;5052182;28;20585;-50
2023/03/02 06:36:22;;;;;;;10.52;8.05;;;;;;;;;;5047998;28;20194;-52
2023/03/02 06:38:49;;;;;;;11.95;8.57;;;;;;;;;;5057068;28;20222;-51
2023/03/02 06:41:15;;;;;;;10.73;7.63;;;;;;;;;;5060601;28;20600;-51
2023/03/02 06:43:41;;;;;;;11.07;8.18;;;;;;;;;;5053640;28;20186;-51
2023/03/02 06:46:06;;;;;;;12.98;8.82;;;;;;;;;;5049995;28;20542;-51
2023/03/02 06:48:32;;;;;;;11.77;8.68;;;;;;;;;;5052668;28;20258;-51
2023/03/02 06:50:58;;;;;;;11.30;8.48;;;;;;;;;;5047109;28;20187;-51
2023/03/02 06:53:24;;;;;;;10.70;8.32;;;;;;;;;;5053947;28;20191;-51
2023/03/02 06:55:50;;;;;;;12.32;8.73;;;;;;;;;;5038835;28;20184;-51
2023/03/02 06:58:16;;;;;;;10.45;7.90;;;;;;;;;;5054577;28;20182;-52
2023/03/02 07:00:42;;;;;;;10.30;8.05;;;;;;;;;;5054924;28;20199;-51
2023/03/02 07:03:08;;;;;;;11.93;7.93;;;;;;;;;;5047445;28;20183;-51
2023/03/02 07:05:35;;;;;;;9.75;7.90;;;;;;;;;;5038446;28;20194;-51
2023/03/02 07:08:01;;;;;;;11.27;8.93;;;;;;;;;;5045301;28;20177;-51
2023/03/02 07:10:27;;;;;;;11.02;9.00;;;;;;;;;;5047576;28;20180;-52
2023/03/02 07:12:53;;;;;;;9.23;7.80;;;;;;;;;;5045383;28;20206;-51
2023/03/02 07:15:20;;;;;;;10.48;8.60;;;;;;;;;;5047905;28;20286;-51
2023/03/02 07:17:46;;;;;;;11.30;8.63;;;;;;;;;;5049530;28;20194;-51
2023/03/02 07:20:13;;;;;;;10.55;8.45;;;;;;;;;;5049686;28;20206;-51
2023/03/02 07:22:39;;;;;;;11.98;7.88;;;;;;;;;;5059137;28;20206;-51
2023/03/02 07:25:06;;;;;;;10.63;8.18;;;;;;;;;;5048332;28;20179;-51
2023/03/02 07:27:32;;;;;;;10.80;8.13;;;;;;;;;;5063734;28;20262;-52
2023/03/02 07:29:57;;;;;;;10.63;8.60;;;;;;;;;;5065293;28;20525;-51
2023/03/02 07:32:23;;;;;;;9.80;7.60;;;;;;;;;;5052013;28;20458;-51
2023/03/02 07:34:49;;;;;;;10.52;8.23;;;;;;;;;;5060213;28;20171;-51
2023/03/02 07:37:15;;;;;;;10.40;8.18;;;;;;;;;;5059512;28;20179;-52
2023/03/02 07:39:41;;;;;;;10.48;8.25;;;;;;;;;;5054692;28;20508;-52
2023/03/02 07:42:10;;;;;;;10.18;8.05;;;;;;;;;;5054729;28;20221;-51
2023/03/02 07:44:36;;;;;;;10.30;7.97;;;;;;;;;;5051653;28;20274;-51
2023/03/02 07:47:01;;;;;;;9.57;8.15;;;;;;;;;;5053224;28;20254;-51
2023/03/02 07:49:27;;;;;;;9.55;7.82;;;;;;;;;;5047136;28;20183;-51
2023/03/02 07:51:53;;;;;;;12.57;8.15;;;;;;;;;;5056567;28;20187;-51
2023/03/02 07:54:19;;;;;;;11.15;8.52;;;;;;;;;;5048388;28;20201;-51
2023/03/02 07:56:45;;;;;;;9.65;7.70;;;;;;;;;;5051433;28;20290;-51
2023/03/02 07:59:11;;;;;;;9.82;7.55;;;;;;;;;;5053757;28;20179;-51
2023/03/02 08:01:37;;;;;;;10.73;8.25;;;;;;;;;;5046371;28;20204;-51
2023/03/02 08:04:03;;;;;;;10.27;7.95;;;;;;;;;;5064322;28;20494;-51
2023/03/02 08:06:29;;;;;;;11.07;8.80;;;;;;;;;;5050741;28;20187;-51
2023/03/02 08:08:56;;;;;;;10.07;7.70;;;;;;;;;;5047983;28;20183;-52
2023/03/02 08:11:22;;;;;;;10.07;7.75;;;;;;;;;;5058324;28;20194;-52
2023/03/02 08:13:47;;;;;;;10.30;8.27;;;;;;;;;;5056798;28;20186;-51
2023/03/02 08:16:16;;;;;;;13.75;8.02;;;;;;;;;;5051174;28;20190;-52
2023/03/02 08:18:43;;;;;;;10.68;7.65;;;;;;;;;;5068551;28;20227;-51
2023/03/02 08:21:17;;;;;;;10.20;7.93;;;;;;;;;;5055355;28;20210;-51
2023/03/02 08:23:43;;;;;;;10.15;7.88;;;;;;;;;;5054040;28;20235;-52
2023/03/02 08:26:09;;;;;;;9.82;7.88;;;;;;;;;;5065498;28;20550;-51
2023/03/02 08:28:36;;;;;;;11.68;8.50;;;;;;;;;;5072635;28;20266;-51
2023/03/02 08:31:02;;;;;;;10.82;8.45;;;;;;;;;;5073793;28;20216;-52
2023/03/02 08:33:29;;;;;;;9.68;7.53;;;;;;;;;;5070873;28;20742;-52
2023/03/02 08:35:55;;;;;;;10.43;7.88;;;;;;;;;;5069973;28;20319;-51
2023/03/02 08:38:22;;;;;;;10.80;7.95;;;;;;;;;;5063640;28;20606;-51
2023/03/02 08:40:50;;;;;;;11.00;7.78;;;;;;;;;;5073047;28;20206;-52
2023/03/02 08:43:16;;;;;;;9.65;7.47;;;;;;;;;;5052342;28;20481;-50
2023/03/02 08:45:42;;;;;;;10.60;7.93;;;;;;;;;;5048522;28;20570;-51
2023/03/02 08:48:08;;;;;;;10.10;7.82;;;;;;;;;;5061031;28;20266;-51
2023/03/02 08:50:33;;;;;;;12.00;7.90;;;;;;;;;;5043039;28;20249;-51
2023/03/02 08:52:59;;;;;;;10.18;8.07;;;;;;;;;;5054772;28;20195;-51
2023/03/02 08:55:25;;;;;;;9.80;7.05;;;;;;;;;;5057381;28;20198;-52
2023/03/02 08:57:51;;;;;;;12.07;7.78;;;;;;;;;;5056802;28;20190;-51
2023/03/02 09:00:17;;;;;;;11.30;7.70;;;;;;;;;;5051085;28;20219;-52
2023/03/02 09:02:43;;;;;;;9.43;7.65;;;;;;;;;;5045347;28;20179;-52
2023/03/02 09:05:11;;;;;;;9.45;7.40;;;;;;;;;;5047382;28;20573;-51
2023/03/02 09:07:36;;;;;;;9.60;7.63;;;;;;;;;;5042914;28;20572;-51
2023/03/02 09:10:02;;;;;;;10.13;7.30;;;;;;;;;;5053825;28;20684;-51
2023/03/02 09:12:28;;;;;;;9.50;8.15;;;;;;;;;;5062072;28;20182;-51
2023/03/02 09:14:54;;;;;;;10.32;7.57;;;;;;;;;;5050191;28;20287;-51
2023/03/02 09:17:20;;;;;;;8.15;7.13;;;;;;;;;;5056270;28;20275;-51
2023/03/02 09:19:46;;;;;;;8.77;7.07;;;;;;;;;;5048382;28;20223;-51
2023/03/02 09:22:12;;;;;;;9.10;7.68;;;;;;;;;;5058756;28;20217;-51
2023/03/02 09:24:38;;;;;;;8.30;7.10;;;;;;;;;;5051162;28;20183;-51
2023/03/02 09:27:04;;;;;;;9.27;8.05;;;;;;;;;;5067214;28;20187;-51
2023/03/02 09:29:30;;;;;;;8.98;7.15;;;;;;;;;;5068472;28;20222;-50
2023/03/02 09:31:56;;;;;;;8.95;7.03;;;;;;;;;;5064517;28;20190;-51
2023/03/02 09:34:22;;;;;;;9.15;6.78;;;;;;;;;;5069880;28;20190;-52
2023/03/02 09:36:48;;;;;;;8.48;6.93;;;;;;;;;;5075928;28;20197;-51
2023/03/02 09:39:13;;;;;;;9.10;7.00;;;;;;;;;;5068830;28;20171;-51
2023/03/02 09:41:39;;;;;;;9.40;6.80;;;;;;;;;;5064588;28;20199;-52
2023/03/02 09:44:30;;;;;;;8.90;6.68;;;;;;;;;;5039537;28;20224;-52
2023/03/02 09:47:02;;;;;;;8.35;7.07;;;;;;;;;;5041413;28;20187;-51
2023/03/02 09:49:46;;;;;;;7.47;6.53;;;;;;;;;;5041038;28;20183;-51
2023/03/02 09:52:30;;;;;;;7.75;6.65;;;;;;;;;;5042661;28;20578;-51
2023/03/02 09:54:57;;;;;;;8.18;6.57;;;;;;;;;;5040697;28;20264;-51
2023/03/02 09:57:25;;;;;;;7.55;6.13;;;;;;;;;;5040224;28;20195;-51
2023/03/02 09:59:56;;;;;;;8.02;6.30;;;;;;;;;;5041571;28;20225;-50
2023/03/02 10:02:48;;;;;;;8.55;6.55;;;;;;;;;;5041236;28;20237;-52
2023/03/02 10:05:19;;;;;;;7.82;6.65;;;;;;;;;;5046353;28;20263;-52
2023/03/02 10:07:46;;;;;;;7.65;6.55;;;;;;;;;;5049074;28;20258;-52
2023/03/02 10:10:21;;;;;;;7.03;6.07;;;;;;;;;;5043203;28;20190;-50
2023/03/02 10:12:53;;;;;;;8.15;6.53;;;;;;;;;;5048439;28;20197;-50
2023/03/02 10:15:23;;;;;;;8.02;6.25;;;;;;;;;;5037060;28;20608;-51
2023/03/02 10:17:51;;;;;;;7.80;5.82;;;;;;;;;;5041255;28;20192;-52
2023/03/02 10:20:20;;;;;;;8.00;6.35;;;;;;;;;;5041098;28;20207;-51
2023/03/02 10:22:48;;;;;;;7.97;6.05;;;;;;;;;;5042987;28;20211;-51
2023/03/02 10:25:17;;;;;;;8.38;5.80;;;;;;;;;;5042482;28;20179;-51
2023/03/02 10:27:48;;;;;;;7.68;5.70;;;;;;;;;;5050878;28;20186;-51
2023/03/02 10:30:29;;;;;;;7.55;5.65;;;;;;;;;;5043313;28;20220;-50
2023/03/02 10:32:57;;;;;;;7.18;6.18;;;;;;;;;;5066811;28;20454;-50
2023/03/02 10:35:25;;;;;;;8.25;5.78;;;;;;;;;;5063280;28;20193;-51
2023/03/02 10:37:54;;;;;;;7.07;5.78;;;;;;;;;;5056763;28;21182;-51
2023/03/02 10:40:41;;;;;;;7.53;5.95;;;;;;;;;;5048412;28;20208;-51
2023/03/02 10:43:11;;;;;;;6.68;5.55;;;;;;;;;;5055204;28;20195;-52
2023/03/02 10:45:37;;;;;;;6.88;5.80;;;;;;;;;;5050007;28;20547;-51
2023/03/02 10:48:05;;;;;;;7.65;6.47;;;;;;;;;;5059586;28;20230;-52
2023/03/02 10:50:31;;;;;;;7.07;5.80;;;;;;;;;;5040428;28;20210;-51
2023/03/02 10:52:57;;;;;;;7.70;5.55;;;;;;;;;;5044295;28;20198;-50
2023/03/02 10:55:23;;;;;;;7.05;5.97;;;;;;;;;;5043347;28;20180;-51
2023/03/02 10:57:59;;;;;;;6.32;5.50;;;;;;;;;;5056442;28;20277;-52
2023/03/02 11:00:26;;;;;;;7.18;6.13;;;;;;;;;;5038327;28;20206;-51
2023/03/02 11:02:53;;;;;;;5.90;5.20;;;;;;;;;;5038976;28;20176;-52
2023/03/02 11:05:21;;;;;;;6.15;5.55;;;;;;;;;;5045894;28;20190;-51
2023/03/02 11:07:55;;;;;;;6.63;5.50;;;;;;;;;;5052412;28;20184;-51
2023/03/02 11:10:22;;;;;;;5.93;5.32;;;;;;;;;;5047294;28;20270;-51
2023/03/02 11:12:49;;;;;;;6.15;5.55;;;;;;;;;;5065128;28;20331;-51
2023/03/02 11:15:24;;;;;;;5.85;5.15;;;;;;;;;;5062530;28;20198;-51
2023/03/02 11:17:53;;;;;;;6.70;5.75;;;;;;;;;;5052214;28;20186;-52
2023/03/02 11:20:25;;;;;;;5.80;5.20;;;;;;;;;;5038941;28;20264;-51
2023/03/02 11:23:09;;;;;;;6.32;5.18;;;;;;;;;;5051953;28;20490;-51
2023/03/02 11:25:37;;;;;;;5.88;5.28;;;;;;;;;;5052062;28;20193;-51
2023/03/02 11:28:08;;;;;;;7.25;5.47;;;;;;;;;;5062548;28;20187;-51
2023/03/02 11:30:36;;;;;;;5.60;5.10;;;;;;;;;;5048566;28;20201;-50
2023/03/02 11:33:11;;;;;;;5.95;5.28;;;;;;;;;;5047334;28;20429;-51
2023/03/02 11:35:49;;;;;;;4.95;4.43;;;;;;;;;;5060095;28;20293;-51
2023/03/02 11:38:26;;;;;;;5.80;4.82;;;;;;;;;;5056655;28;20182;-51
2023/03/02 11:40:55;;;;;;;6.07;5.47;;;;;;;;;;5048600;28;20206;-51
2023/03/02 11:43:21;;;;;;;5.25;4.75;;;;;;;;;;5052281;28;20192;-51
2023/03/02 11:46:02;;;;;;;5.65;5.05;;;;;;;;;;5055317;28;20187;-50
2023/03/02 11:48:34;;;;;;;5.50;4.60;;;;;;;;;;5050579;28;20182;-51
2023/03/02 11:51:00;;;;;;;5.63;4.88;;;;;;;;;;5059100;28;20192;-51
2023/03/02 11:53:33;;;;;;;5.47;4.82;;;;;;;;;;5051208;28;20256;-51
2023/03/02 11:55:59;;;;;;;6.03;4.88;;;;;;;;;;5063712;28;20239;-51
2023/03/02 11:58:26;;;;;;;6.55;5.15;;;;;;;;;;5048603;28;20190;-51
2023/03/02 12:00:52;;;;;;;5.47;4.70;;;;;;;;;;5040670;28;20214;-51
2023/03/02 12:03:18;;;;;;;6.38;5.10;;;;;;;;;;5052774;28;20257;-51
2023/03/02 12:05:59;;;;;;;5.28;4.78;;;;;;;;;;5072174;28;20192;-51
2023/03/02 12:08:34;;;;;;;6.25;4.93;;;;;;;;;;5046360;28;20227;-51
2023/03/02 12:11:02;;;;;;;5.95;5.03;;;;;;;;;;5070067;28;20219;-51
2023/03/02 12:13:29;;;;;;;5.05;4.53;;;;;;;;;;5054948;28;20190;-51
2023/03/02 12:15:55;;;;;;;4.45;4.05;;;;;;;;;;5064037;28;20312;-51
2023/03/02 12:18:21;;;;;;;5.35;4.70;;;;;;;;;;5067382;28;20547;-51
2023/03/02 12:20:59;;;;;;;5.57;4.68;;;;;;;;;;5043986;28;20216;-51
2023/03/02 12:23:25;;;;;;;4.97;4.30;;;;;;;;;;5051748;28;20206;-51
2023/03/02 12:26:01;;;;;;;5.35;4.43;;;;;;;;;;5061792;28;20266;-52
2023/03/02 12:28:30;;;;;;;5.22;4.72;;;;;;;;;;5053536;28;20178;-51
2023/03/02 12:31:03;;;;;;;5.78;4.53;;;;;;;;;;5048537;28;20266;-51
2023/03/02 12:33:29;;;;;;;5.60;4.43;;;;;;;;;;5059912;28;20202;-51
2023/03/02 12:36:10;;;;;;;5.18;4.53;;;;;;;;;;5061198;28;20187;-51
2023/03/02 12:38:38;;;;;;;4.72;4.25;;;;;;;;;;5064023;28;20182;-51
2023/03/02 12:41:13;;;;;;;5.18;4.47;;;;;;;;;;5050252;28;20198;-52
2023/03/02 12:43:53;;;;;;;4.82;4.20;;;;;;;;;;5050296;28;20240;-51
2023/03/02 12:46:29;;;;;;;4.93;3.78;;;;;;;;;;5060522;28;20216;-52
2023/03/02 12:49:14;;;;;;;4.97;4.47;;;;;;;;;;5051195;28;20176;-51
2023/03/02 12:51:46;;;;;;;4.47;4.07;;;;;;;;;;5045566;28;20199;-51
2023/03/02 12:54:14;;;;;;;5.38;3.97;;;;;;;;;;5053163;28;20218;-52
2023/03/02 12:56:40;;;;;;;5.47;4.60;;;;;;;;;;5044751;28;20582;-52
2023/03/02 12:59:06;;;;;;;4.50;4.10;;;;;;;;;;5046818;28;20183;-51
2023/03/02 13:01:32;;;;;;;5.15;4.10;;;;;;;;;;5061311;28;20365;-51
2023/03/02 13:03:58;;;;;;;4.50;4.10;;;;;;;;;;5051136;28;20206;-52
2023/03/02 13:06:27;;;;;;;5.18;4.68;;;;;;;;;;5047079;28;20180;-52
2023/03/02 13:08:54;;;;;;;5.55;3.95;;;;;;;;;;5046513;28;20887;-52
2023/03/02 13:11:23;;;;;;;4.80;4.30;;;;;;;;;;5060007;28;20191;-51
2023/03/02 13:13:49;;;;;;;4.47;4.07;;;;;;;;;;5045424;28;20206;-51
2023/03/02 13:16:23;;;;;;;4.95;3.90;;;;;;;;;;5055744;28;20183;-51
2023/03/02 13:18:52;;;;;;;5.38;4.20;;;;;;;;;;5056140;28;20180;-51
2023/03/02 13:21:19;;;;;;;5.63;4.63;;;;;;;;;;5055749;28;20207;-51
2023/03/02 13:23:46;;;;;;;5.70;4.38;;;;;;;;;;5045296;28;20612;-52
2023/03/02 13:26:32;;;;;;;4.43;4.00;;;;;;;;;;5044107;28;20203;-52
2023/03/02 13:29:05;;;;;;;4.60;3.92;;;;;;;;;;5061579;28;20570;-51
2023/03/02 13:31:32;;;;;;;5.68;4.68;;;;;;;;;;5060358;28;20186;-51
2023/03/02 13:33:58;;;;;;;5.38;4.03;;;;;;;;;;5056651;28;20240;-52
2023/03/02 13:36:25;;;;;;;4.68;4.20;;;;;;;;;;5061457;28;20559;-52
2023/03/02 13:38:53;;;;;;;6.35;4.30;;;;;;;;;;5063619;28;20266;-51
2023/03/02 13:41:23;;;;;;;4.47;4.03;;;;;;;;;;5055279;28;20301;-51
2023/03/02 13:43:49;;;;;;;4.90;4.28;;;;;;;;;;5052652;28;20210;-51
2023/03/02 13:46:15;;;;;;;4.40;4.00;;;;;;;;;;5058410;28;20198;-51
2023/03/02 13:48:41;;;;;;;5.10;4.13;;;;;;;;;;5053706;28;20256;-51
2023/03/02 13:51:17;;;;;;;4.43;3.80;;;;;;;;;;5068869;28;20182;-51
2023/03/02 13:53:51;;;;;;;4.93;4.15;;;;;;;;;;5063974;28;20229;-51
2023/03/02 13:56:17;;;;;;;5.22;4.10;;;;;;;;;;5056744;28;20247;-51
2023/03/02 13:58:43;;;;;;;5.35;4.00;;;;;;;;;;5069832;28;20197;-51
2023/03/02 14:01:10;;;;;;;3.80;3.50;;;;;;;;;;5050887;28;20212;-51
2023/03/02 14:03:36;;;;;;;4.78;3.60;;;;;;;;;;5055124;28;20183;-51
2023/03/02 14:06:02;;;;;;;4.72;3.92;;;;;;;;;;5051439;28;20248;-51
2023/03/02 14:08:28;;;;;;;4.57;4.10;;;;;;;;;;5059987;28;20543;-51
2023/03/02 14:10:58;;;;;;;4.65;3.95;;;;;;;;;;5059338;28;20317;-48
2023/03/02 14:13:25;;;;;;;4.43;4.03;;;;;;;;;;5049041;28;20179;-51
2023/03/02 14:15:52;;;;;;;5.85;4.43;;;;;;;;;;5043174;28;20350;-51
2023/03/02 14:18:35;;;;;;;5.40;4.07;;;;;;;;;;5053720;28;20175;-51
2023/03/02 14:21:01;;;;;;;5.10;4.10;;;;;;;;;;5053647;28;20234;-51
2023/03/02 14:23:27;;;;;;;4.72;3.97;;;;;;;;;;5057462;28;20220;-52
2023/03/02 14:25:54;;;;;;;4.53;3.72;;;;;;;;;;5064494;28;20243;-51
2023/03/02 14:28:30;;;;;;;7.53;4.35;;;;;;;;;;5048837;28;20186;-52
2023/03/02 14:30:56;;;;;;;4.63;3.85;;;;;;;;;;5038579;28;20195;-52
2023/03/02 14:33:23;;;;;;;5.57;4.30;;;;;;;;;;5044494;28;20299;-52
2023/03/02 14:35:50;;;;;;;5.43;4.15;;;;;;;;;;5062920;28;20458;-51
2023/03/02 14:38:16;;;;;;;5.53;3.97;;;;;;;;;;5043933;28;20251;-51
2023/03/02 14:40:42;;;;;;;4.47;4.05;;;;;;;;;;5060568;28;20572;-51
2023/03/02 14:43:09;;;;;;;5.93;4.32;;;;;;;;;;5057053;28;20208;-52
2023/03/02 14:45:34;;;;;;;4.05;3.63;;;;;;;;;;5054792;28;20203;-51